Terminal Aerodrome Forecast
Issued by NWS

Home | Current Version | Previous Version | Text Only | Print | Product List | Glossary On
Versions: 1 2 3 4 5 6 7 8 9 10 11 12 13 14 15 16 17 18 19 20 21 22 23
393
FTUS46 KSEW 121749
TAFCLM
TAF
KCLM 121749Z 1218/1318 31008KT P6SM VCSH SCT025 BKN050
      TEMPO 1218/1219 6SM -RA BR
     FM130800 24004KT 6SM -RA BR OVC050
     FM131300 22003KT P6SM BKN070 OVC100=

USA.gov is the U.S. government's official web portal to all federal, state and local government web resources and services.